Gordontown, North Carolina
Current Conditions -  °F | °C
As of 1:35 PM on Saturday 25 Oct 2014 (Local Time) from KEXX Reporting Station
Clear Clear  
Wind Chill: 70°   Ceiling: Unl
Heat Index: 70°   Visibility: 10mi
Dew Point: 34°   Wind: 3mph
Humidity: 27%   Direction: 330°NNW
Pressure: 29.98"   Gusts: NA
Location:  35.7974°N, 80.2541°W
Report Text: KEXX 251735Z AUTO 33003KT 10SM CLR 21/01 A2998 RMK AO2 T02090011
Loading
Personal Weather Stations






























Interactive Weather Map
Tropical Storm Tracking
New forecast layout! Learn more

10-Day Weather Forecast

Advertisements
Track Severe Weather on mobile